Arnett, WV (25007)

6:38 AM EDT on August 22, 2014 (GMT -0400)
Southeast Beckley | Change Station
CLOSE
Current Station
Personal Weather Station
Location: Beckley, WV
Elevation: 2365 ft
Nearby Weather Stations
Active Advisory: Flash Flood Watch

Elev 2365 ft 37.76 °N, 81.16 °W | Updated 2 seconds ago

Rain
Rain Mist
66.6 °F
Feels Like 66.6 °F
N
0.0
Wind Variable Wind from ENE
Gusts 0.0 mph

Today
High -- | Low -- °F
--% Chance of Precip.
Yesterday
High -- | Low -- °F
Precip. -- in
6:47 AM 8:09 PM
Waning Crescent, 9% visible
Pressure 30.14 in
Visibility 4.0 miles
Clouds Mostly Cloudy 500 ft
Mostly Cloudy 2100 ft
Overcast 3000 ft
Dew Point 65 °F
Humidity 95%
Rainfall 0.17 in
Snow Depth Not available.
UV 0 out of 12
Pollen 9.30 out of 12
Air Quality Not available.
Flu Activity Not available.
SPECI KBKW 221027Z AUTO VRB03KT 4SM RA BR BKN005 BKN021 OVC030 19/18 A3014 RMK AO2 RAB19 P0002 T01940183 TSNO

More Conditions Fewer Conditions

Pressure 30.14 in
Visibility 4.0 miles
Clouds Mostly Cloudy 500 ft
Mostly Cloudy 2100 ft
Overcast 3000 ft
Dew Point 65 °F
Humidity 95%
Rainfall 0.17 in
Snow Depth Not available.
UV 0 out of 12
Pollen 9.30 out of 12
Air Quality Not available.
Flu Activity Not available.
SPECI KBKW 221027Z AUTO VRB03KT 4SM RA BR BKN005 BKN021 OVC030 19/18 A3014 RMK AO2 RAB19 P0002 T01940183 TSNO

More Conditions Fewer Conditions

10-Day Weather Forecast

Almanac

Astronomy

Aug. 22, 2014 Rise Set
Actual Time 6:47 AM EDT 8:09 PM EDT
Civil Twilight 6:19 AM EDT 8:36 PM EDT
Nautical Twilight 5:46 AM EDT 9:09 PM EDT
Astronomical Twilight 5:12 AM EDT 9:44 PM EDT
Moon 4:09 AM EDT 6:15 PM EDT
Length of Visible Light 14h 17m
Length of Day
13h 22m
Tomorrow will be 2m 15s shorter.
Waning Crescent, 9% of the Moon is Illuminated
Today
Waning Crescent
Aug 25
New
Sep 2
First Quarter
Sep 8
Full
Sep 15
Last Quarter

Today's Extremes

State Highs State Lows

Community

WunderPhotos

Upload Photos

1,746,149 photos uploaded!

Nearby

Snow Depth

Station Depth Elevation
No new snow has been reported.

Earthquake Activity

City Distance Mag. Time & Date
No recent earthquake activity has been reported nearby.
Minimum magnitude displayed is 2.5.

Coastal Water Temperatures

Place Temperature
No Stations Reporting

Nearby Weather Stations